Time;durP1;ratioP1;P1;durP2;ratioP2;P2;SDS_P1;SDS_P2;PMS_P1;PMS_P2;Temp;Humidity;BMP_temperature;BMP_pressure;BME280_temperature;BME280_humidity;BME280_pressure;Samples;Min_cycle;Max_cycle;Signal;HPM_P1;HPM_P2
2021/06/29 00:01:00;;;;;;;14.60;11.10;;;;;;;23.86;66.10;100201.72;5110471;28;20103;-22
2021/06/29 00:03:26;;;;;;;17.45;11.43;;;;;;;24.08;65.85;100203.72;5110427;28;20046;-22
2021/06/29 00:05:51;;;;;;;16.20;12.00;;;;;;;23.31;69.53;100199.78;5091558;28;20035;-22
2021/06/29 00:08:17;;;;;;;15.88;11.75;;;;;;;23.36;66.66;100196.19;5091962;28;20043;-22
2021/06/29 00:10:42;;;;;;;16.73;11.90;;;;;;;23.31;68.65;100186.19;5110154;28;20082;-22
2021/06/29 00:13:08;;;;;;;16.33;12.82;;;;;;;23.42;67.01;100197.69;5110767;28;20114;-22
2021/06/29 00:15:33;;;;;;;17.50;12.45;;;;;;;23.78;66.69;100197.84;5110254;28;20035;-22
2021/06/29 00:17:59;;;;;;;16.02;13.25;;;;;;;23.86;66.75;100193.56;5109751;28;20502;-22
2021/06/29 00:20:25;;;;;;;18.48;12.57;;;;;;;23.94;66.31;100181.94;5109912;28;20476;-22
2021/06/29 00:22:50;;;;;;;17.83;12.25;;;;;;;23.76;65.70;100191.03;5091541;28;20032;-22
2021/06/29 00:25:17;;;;;;;17.05;12.68;;;;;;;23.93;66.07;100195.91;5110063;28;20131;-22
2021/06/29 00:27:43;;;;;;;18.20;14.10;;;;;;;23.78;66.44;100194.28;5109516;28;20035;-23
2021/06/29 00:30:09;;;;;;;16.45;12.25;;;;;;;23.53;67.35;100185.50;5109770;28;20020;-23
2021/06/29 00:32:36;;;;;;;17.30;12.70;;;;;;;23.70;66.76;100186.78;5109891;28;20076;-22
2021/06/29 00:35:01;;;;;;;17.95;13.45;;;;;;;23.36;68.47;100204.34;5109853;28;20561;-22
2021/06/29 00:37:27;;;;;;;17.13;13.02;;;;;;;23.31;68.50;100212.59;5109583;28;20040;-22
2021/06/29 00:39:52;;;;;;;18.63;13.50;;;;;;;23.17;68.92;100207.94;5109613;28;20026;-22
2021/06/29 00:42:18;;;;;;;18.95;13.75;;;;;;;23.00;69.57;100202.22;5109757;28;20032;-22
2021/06/29 00:44:46;;;;;;;17.85;14.20;;;;;;;23.32;68.97;100195.19;5109680;28;20027;-22
2021/06/29 00:47:11;;;;;;;18.73;14.07;;;;;;;23.13;69.17;100190.63;5109439;28;20084;-22
2021/06/29 00:49:37;;;;;;;20.45;13.68;;;;;;;23.24;69.01;100207.56;5109332;28;20031;-22
2021/06/29 00:52:04;;;;;;;17.05;14.63;;;;;;;23.12;70.09;100207.22;5090197;28;20118;-22
2021/06/29 00:54:29;;;;;;;17.65;13.73;;;;;;;23.25;69.57;100198.28;5109233;28;20024;-23
2021/06/29 00:56:55;;;;;;;19.00;14.05;;;;;;;23.61;67.82;100201.13;5109287;28;20132;-22
2021/06/29 00:59:20;;;;;;;19.17;14.20;;;;;;;23.57;67.09;100193.88;5109385;28;20055;-23
2021/06/29 01:01:45;;;;;;;17.58;13.07;;;;;;;23.62;66.42;100180.97;5109039;28;20874;-22
2021/06/29 01:04:11;;;;;;;20.70;13.43;;;;;;;23.66;66.18;100189.34;5090585;28;20027;-23
2021/06/29 01:06:37;;;;;;;16.55;12.88;;;;;;;23.70;65.60;100187.63;5109358;28;20080;-22
2021/06/29 01:09:03;;;;;;;17.65;14.18;;;;;;;24.00;65.76;100193.56;5109025;28;20055;-22
2021/06/29 01:11:29;;;;;;;17.80;13.07;;;;;;;24.02;64.86;100194.84;5108696;28;20410;-22
2021/06/29 01:13:54;;;;;;;19.75;13.60;;;;;;;23.91;65.24;100193.47;5108843;28;20039;-22
2021/06/29 01:16:20;;;;;;;18.63;13.27;;;;;;;23.63;67.13;100188.00;5109621;28;20032;-22
2021/06/29 01:18:45;;;;;;;16.70;13.18;;;;;;;23.44;67.02;100188.13;5109002;28;20027;-22
2021/06/29 01:21:16;;;;;;;17.92;13.18;;;;;;;23.85;65.61;100181.88;5108632;28;20023;-22
2021/06/29 01:23:45;;;;;;;16.98;14.48;;;;;;;23.99;65.75;100195.47;5108937;28;20483;-22
2021/06/29 01:26:24;;;;;;;16.05;13.80;;;;;;;23.82;66.62;100187.13;5108706;28;20027;-22
2021/06/29 01:28:58;;;;;;;15.30;13.07;;;;;;;23.94;66.35;100201.03;5108856;28;20026;-22
2021/06/29 01:31:24;;;;;;;18.35;12.75;;;;;;;23.73;66.08;100202.53;5108518;28;20036;-22
2021/06/29 01:33:50;;;;;;;18.77;12.35;;;;;;;23.86;65.13;100190.84;5108709;28;20869;-22
2021/06/29 01:36:17;;;;;;;16.85;12.35;;;;;;;23.70;65.44;100193.06;5108709;28;20016;-22
2021/06/29 01:38:43;;;;;;;16.23;13.37;;;;;;;23.73;65.41;100197.09;5108302;28;20027;-22
2021/06/29 01:41:11;;;;;;;15.98;12.73;;;;;;;22.86;67.55;100189.41;5108382;28;20356;-22
2021/06/29 01:44:02;;;;;;;17.13;13.45;;;;;;;22.95;68.52;100188.75;5108411;28;20035;-22
2021/06/29 01:46:24;;;;;;;20.70;13.93;;;;;;;22.80;69.81;100190.63;5092623;28;20052;-22
2021/06/29 01:48:51;;;;;;;20.52;13.63;;;;;;;23.34;67.73;100206.56;5108234;28;20031;-22
2021/06/29 01:51:17;;;;;;;18.75;13.73;;;;;;;23.13;68.29;100208.81;5108082;28;20035;-22
2021/06/29 01:53:45;;;;;;;21.55;13.95;;;;;;;23.40;66.63;100210.81;5108201;28;20118;-22
2021/06/29 01:56:17;;;;;;;19.63;15.30;;;;;;;23.52;66.43;100213.84;5108136;28;20032;-22
2021/06/29 01:59:06;;;;;;;21.55;13.75;;;;;;;23.27;66.92;100202.31;5108331;28;20038;-22
2021/06/29 02:01:31;;;;;;;18.23;13.13;;;;;;;23.21;67.19;100211.69;5107953;28;20106;-22
2021/06/29 02:03:57;;;;;;;16.00;12.48;;;;;;;23.04;67.70;100204.06;5088912;28;20031;-22
2021/06/29 02:06:22;;;;;;;16.08;12.52;;;;;;;23.07;67.15;100197.25;5108301;28;20783;-22
2021/06/29 02:08:48;;;;;;;18.90;12.60;;;;;;;22.85;68.51;100212.25;5107526;28;20048;-22
2021/06/29 02:11:13;;;;;;;14.90;12.07;;;;;;;22.72;68.62;100202.16;5107986;28;20104;-22
2021/06/29 02:13:39;;;;;;;15.38;12.18;;;;;;;22.50;68.80;100191.91;5107906;28;20030;-22
2021/06/29 02:16:04;;;;;;;22.48;12.48;;;;;;;22.53;67.84;100204.09;5089408;28;20458;-22
2021/06/29 02:18:30;;;;;;;18.42;12.45;;;;;;;22.69;68.07;100224.50;5107627;28;20035;-22
2021/06/29 02:20:55;;;;;;;16.60;13.18;;;;;;;22.45;68.80;100214.53;5107944;28;20437;-22
2021/06/29 02:23:21;;;;;;;17.38;12.40;;;;;;;22.04;70.42;100228.63;5072630;28;20027;-22
2021/06/29 02:25:47;;;;;;;17.52;11.50;;;;;;;21.71;71.01;100216.03;5107851;28;20036;-22
2021/06/29 02:28:12;;;;;;;14.50;9.57;;;;;;;21.43;71.49;100226.63;5107760;28;20069;-22
2021/06/29 02:30:38;;;;;;;14.18;10.07;;;;;;;21.86;69.76;100207.69;5107570;28;20114;-22
2021/06/29 02:33:04;;;;;;;13.57;10.35;;;;;;;22.46;68.01;100226.22;5107488;28;20034;-22
2021/06/29 02:35:29;;;;;;;13.13;11.65;;;;;;;22.48;68.23;100223.19;5107777;28;20028;-22
2021/06/29 02:37:56;;;;;;;15.98;11.73;;;;;;;22.53;68.31;100225.84;5088950;28;20028;-22
2021/06/29 02:40:21;;;;;;;14.95;12.45;;;;;;;22.41;68.55;100226.25;5107503;28;20072;-22
2021/06/29 02:42:47;;;;;;;17.05;11.98;;;;;;;22.24;69.53;100224.06;5107949;28;20668;-22
2021/06/29 02:45:17;;;;;;;15.35;12.48;;;;;;;22.37;69.73;100220.63;5107330;28;20031;-22
2021/06/29 02:47:43;;;;;;;14.82;12.02;;;;;;;22.39;69.68;100217.59;5107429;28;20046;-22
2021/06/29 02:50:09;;;;;;;14.23;11.50;;;;;;;22.36;69.87;100216.28;5107692;28;20674;-22
2021/06/29 02:52:34;;;;;;;15.73;11.13;;;;;;;22.30;69.76;100209.31;5089357;28;20157;-22
2021/06/29 02:55:00;;;;;;;15.90;12.85;;;;;;;21.74;71.31;100210.00;5107423;28;20039;-22
2021/06/29 02:57:26;;;;;;;13.93;11.75;;;;;;;21.57;72.17;100205.84;5107267;28;20024;-22
2021/06/29 02:59:52;;;;;;;13.05;11.25;;;;;;;21.62;71.65;100208.53;5089080;28;20028;-22
2021/06/29 03:02:17;;;;;;;17.55;11.68;;;;;;;21.66;71.32;100214.19;5107678;28;20062;-22
2021/06/29 03:04:43;;;;;;;15.27;12.27;;;;;;;21.50;72.23;100216.25;5107259;28;20031;-22
2021/06/29 03:07:08;;;;;;;15.68;12.82;;;;;;;21.48;72.21;100213.03;5107127;28;20039;-22
2021/06/29 03:09:34;;;;;;;16.63;11.43;;;;;;;21.69;71.38;100220.94;5106993;28;20120;-22
2021/06/29 03:11:59;;;;;;;16.42;12.80;;;;;;;22.14;69.93;100229.59;5107049;28;20524;-22
2021/06/29 03:14:24;;;;;;;16.92;12.30;;;;;;;22.42;68.81;100219.75;5109081;28;20032;-22
2021/06/29 03:16:52;;;;;;;17.20;12.98;;;;;;;22.33;68.87;100227.75;5111134;28;20031;-22
2021/06/29 03:19:17;;;;;;;15.90;12.73;;;;;;;22.63;68.27;100220.25;5111264;28;20784;-22
2021/06/29 03:21:42;;;;;;;17.50;12.13;;;;;;;22.27;68.66;100209.88;5110812;28;20031;-22
2021/06/29 03:24:08;;;;;;;16.30;11.43;;;;;;;22.07;69.64;100219.13;5092333;28;20023;-22
2021/06/29 03:26:34;;;;;;;16.85;12.70;;;;;;;22.21;68.50;100202.88;5110189;28;20032;-22
2021/06/29 03:28:59;;;;;;;17.23;12.25;;;;;;;22.66;67.55;100212.31;5092833;28;20027;-22
2021/06/29 03:31:25;;;;;;;18.13;12.18;;;;;;;22.36;67.96;100216.28;5110970;28;20045;-22
2021/06/29 03:33:50;;;;;;;14.98;12.05;;;;;;;22.04;69.18;100204.19;5110606;28;20024;-22
2021/06/29 03:36:16;;;;;;;16.60;12.68;;;;;;;22.06;69.42;100218.28;5110949;28;20054;-22
2021/06/29 03:38:41;;;;;;;13.82;11.63;;;;;;;22.00;69.13;100197.72;5110813;28;20024;-22
2021/06/29 03:41:07;;;;;;;17.23;12.35;;;;;;;22.15;68.93;100195.91;5110756;28;20038;-22
2021/06/29 03:43:37;;;;;;;15.70;12.90;;;;;;;22.12;69.50;100210.09;5110765;28;20385;-22
2021/06/29 03:46:04;;;;;;;16.83;12.80;;;;;;;21.64;70.60;100209.03;5110500;28;20055;-22
2021/06/29 03:48:30;;;;;;;14.63;13.05;;;;;;;21.91;69.43;100228.56;5110558;28;20111;-22
2021/06/29 03:50:55;;;;;;;17.27;12.43;;;;;;;22.62;66.74;100229.50;5110480;28;20027;-22
2021/06/29 03:53:21;;;;;;;17.48;13.52;;;;;;;22.61;66.70;100219.72;5110807;28;20039;-22
2021/06/29 03:55:46;;;;;;;16.58;13.63;;;;;;;22.65;67.02;100232.41;5110141;28;20039;-22
2021/06/29 03:58:12;;;;;;;16.45;13.00;;;;;;;22.85;65.60;100225.84;5110386;28;20041;-22
2021/06/29 04:00:37;;;;;;;18.08;13.52;;;;;;;22.36;67.99;100229.88;5110477;28;20027;-22
2021/06/29 04:03:03;;;;;;;16.70;13.25;;;;;;;22.38;67.93;100224.16;5110455;28;20027;-22
2021/06/29 04:05:29;;;;;;;16.35;13.80;;;;;;;22.89;66.74;100231.53;5110143;28;20111;-22
2021/06/29 04:07:54;;;;;;;16.98;13.55;;;;;;;23.09;66.34;100230.41;5110170;28;20046;-22
2021/06/29 04:10:19;;;;;;;16.05;13.77;;;;;;;23.14;67.10;100237.66;5110229;28;20044;-22
2021/06/29 04:12:45;;;;;;;19.75;15.55;;;;;;;23.31;66.97;100228.91;5110272;28;20390;-22
2021/06/29 04:15:11;;;;;;;18.98;15.20;;;;;;;23.20;66.83;100222.88;5110183;28;20059;-22
2021/06/29 04:17:36;;;;;;;19.23;13.68;;;;;;;23.18;68.72;100217.72;5110242;28;20085;-22
2021/06/29 04:20:04;;;;;;;18.45;15.07;;;;;;;22.94;69.09;100203.41;5109777;28;20098;-22
2021/06/29 04:22:29;;;;;;;;;;;;;;;23.10;69.30;100218.41;5110522;28;20015;-22
2021/06/29 04:24:56;;;;;;;20.47;14.70;;;;;;;23.02;69.22;100205.50;5109641;28;19914;-22
2021/06/29 04:27:22;;;;;;;19.90;14.68;;;;;;;23.01;70.73;100221.00;5109103;28;20277;-22
2021/06/29 04:29:49;;;;;;;19.48;14.63;;;;;;;23.03;70.30;100226.97;5109488;28;20124;-22
2021/06/29 04:32:14;;;;;;;22.38;17.73;;;;;;;23.18;70.77;100219.63;5109829;28;20063;-22
2021/06/29 04:34:40;;;;;;;23.05;17.67;;;;;;;22.97;71.33;100211.81;5091721;28;20138;-22
2021/06/29 04:37:07;;;;;;;24.40;18.02;;;;;;;23.44;69.71;100217.25;5109733;28;20077;-22
2021/06/29 04:39:32;;;;;;;23.52;17.52;;;;;;;23.62;68.27;100224.53;5109629;28;20526;-22
2021/06/29 04:41:58;;;;;;;26.33;20.50;;;;;;;23.65;70.07;100223.09;5109310;28;20036;-22
2021/06/29 04:44:23;;;;;;;27.45;21.33;;;;;;;23.54;70.59;100211.63;5109440;28;20023;-22
2021/06/29 04:46:50;;;;;;;25.23;20.88;;;;;;;23.70;70.75;100235.81;5109798;28;20823;-22
2021/06/29 04:49:16;;;;;;;28.30;20.50;;;;;;;23.18;71.88;100225.06;5109518;28;20031;-22
2021/06/29 04:51:42;;;;;;;28.00;20.45;;;;;;;23.10;72.69;100214.88;5109442;28;20030;-22
2021/06/29 04:54:07;;;;;;;24.15;20.83;;;;;;;23.14;72.09;100213.97;5109389;28;20384;-22
2021/06/29 04:56:33;;;;;;;28.77;21.38;;;;;;;23.35;72.03;100235.38;5109301;28;20097;-23
2021/06/29 04:58:58;;;;;;;29.10;21.73;;;;;;;23.29;71.87;100220.25;5109309;28;20042;-22
2021/06/29 05:01:24;;;;;;;28.88;22.92;;;;;;;23.54;70.23;100222.50;5109307;28;20032;-22
2021/06/29 05:03:50;;;;;;;27.80;21.10;;;;;;;23.92;67.51;100227.75;5109144;28;20058;-22
2021/06/29 05:06:15;;;;;;;23.23;19.42;;;;;;;24.15;67.61;100230.53;5109137;28;20463;-22
2021/06/29 05:08:42;;;;;;;24.23;18.65;;;;;;;24.16;67.37;100226.72;5108912;28;20495;-22
2021/06/29 05:11:07;;;;;;;24.95;19.00;;;;;;;24.49;65.75;100230.06;5108877;28;20026;-22
2021/06/29 05:13:33;;;;;;;24.98;20.08;;;;;;;24.08;68.32;100230.16;5109339;28;20411;-22
2021/06/29 05:15:58;;;;;;;25.48;18.80;;;;;;;24.25;68.23;100219.41;5108770;28;20032;-22
2021/06/29 05:18:24;;;;;;;24.40;20.35;;;;;;;24.63;67.45;100230.03;5108783;28;20024;-22
2021/06/29 05:20:49;;;;;;;23.77;18.83;;;;;;;24.35;68.57;100234.75;5108950;28;20020;-22
2021/06/29 05:23:15;;;;;;;23.92;19.33;;;;;;;24.21;68.32;100229.31;5108941;28;20042;-22
2021/06/29 05:25:40;;;;;;;24.33;18.30;;;;;;;23.97;69.21;100226.88;5108818;28;20758;-22
2021/06/29 05:28:06;;;;;;;20.42;16.42;;;;;;;24.21;66.66;100219.25;5108387;28;20105;-22
2021/06/29 05:30:31;;;;;;;22.10;18.27;;;;;;;24.05;68.30;100216.03;5108347;28;20069;-22
2021/06/29 05:32:57;;;;;;;20.98;16.20;;;;;;;24.66;66.02;100229.41;5108422;28;20038;-22
2021/06/29 05:35:22;;;;;;;20.45;17.30;;;;;;;24.74;65.15;100233.31;5108743;28;20028;-23
2021/06/29 05:37:48;;;;;;;22.73;17.92;;;;;;;24.54;66.39;100227.25;5108225;28;20442;-21
2021/06/29 05:40:13;;;;;;;22.48;18.63;;;;;;;24.71;66.36;100229.31;5108426;28;20020;-22
2021/06/29 05:42:39;;;;;;;23.55;19.35;;;;;;;24.81;66.10;100209.97;5104912;28;20818;-22
2021/06/29 05:45:05;;;;;;;23.52;18.30;;;;;;;24.92;66.73;100226.06;5097565;28;20051;-22
2021/06/29 05:47:33;;;;;;;24.08;18.23;;;;;;;24.57;66.72;100214.91;5098600;28;20028;-22
2021/06/29 05:49:58;;;;;;;24.05;18.13;;;;;;;24.85;66.28;100227.31;5095638;28;20028;-22
2021/06/29 05:52:25;;;;;;;20.02;16.83;;;;;;;24.65;66.13;100227.81;5087987;28;20063;-22
2021/06/29 05:54:51;;;;;;;24.52;18.35;;;;;;;24.67;66.78;100228.31;5087663;28;20472;-22
2021/06/29 05:57:17;;;;;;;23.42;16.88;;;;;;;24.78;65.89;100229.66;5087729;28;20035;-22
2021/06/29 05:59:42;;;;;;;20.77;17.25;;;;;;;25.14;66.12;100222.53;5087586;28;20043;-22
2021/06/29 06:02:08;;;;;;;20.38;17.48;;;;;;;25.13;65.95;100231.81;5087539;28;20039;-22
2021/06/29 06:04:34;;;;;;;21.38;17.30;;;;;;;25.20;65.10;100235.72;5087750;28;20070;-22
2021/06/29 06:07:00;;;;;;;23.95;16.40;;;;;;;25.16;64.74;100232.00;5087637;28;20035;-22
2021/06/29 06:09:25;;;;;;;22.52;17.25;;;;;;;25.36;64.71;100229.88;5069461;28;20048;-22
2021/06/29 06:11:51;;;;;;;25.50;17.58;;;;;;;25.72;63.69;100235.16;5087272;28;20024;-22
2021/06/29 06:14:16;;;;;;;21.00;16.50;;;;;;;25.90;62.61;100230.56;5088018;28;20032;-22
2021/06/29 06:16:41;;;;;;;18.75;15.95;;;;;;;25.75;62.29;100226.34;5087374;28;20024;-22
2021/06/29 06:19:07;;;;;;;20.52;17.02;;;;;;;25.74;63.06;100229.38;5087467;28;20137;-22
2021/06/29 06:21:32;;;;;;;20.38;16.55;;;;;;;25.97;62.41;100236.41;5087463;28;20024;-22
2021/06/29 06:23:58;;;;;;;19.95;15.93;;;;;;;26.17;61.82;100225.97;5087093;28;20036;-22
2021/06/29 06:26:23;;;;;;;20.40;16.33;;;;;;;25.82;61.14;100218.47;5087265;28;20035;-22
2021/06/29 06:28:49;;;;;;;22.77;17.58;;;;;;;25.98;61.14;100227.06;5087739;28;20039;-22
2021/06/29 06:31:14;;;;;;;20.77;17.10;;;;;;;26.17;61.00;100215.03;5086973;28;20024;-22
2021/06/29 06:33:40;;;;;;;22.85;18.10;;;;;;;26.10;62.15;100212.78;5087349;28;20088;-22
2021/06/29 06:36:05;;;;;;;27.88;19.13;;;;;;;26.40;61.16;100210.25;5087262;28;20032;-21
2021/06/29 06:38:31;;;;;;;22.10;18.98;;;;;;;26.45;60.23;100197.19;5087113;28;20581;-21
2021/06/29 06:40:56;;;;;;;24.02;17.95;;;;;;;26.77;59.44;100214.25;5087239;28;20024;-22
2021/06/29 06:43:22;;;;;;;23.00;18.58;;;;;;;26.41;58.88;100209.91;5087754;28;20736;-21
2021/06/29 06:45:47;;;;;;;22.92;18.20;;;;;;;26.38;59.75;100216.03;5087082;28;20035;-22
2021/06/29 06:48:13;;;;;;;23.92;18.42;;;;;;;26.29;60.63;100212.47;5087051;28;20496;-22
2021/06/29 06:50:38;;;;;;;22.00;18.55;;;;;;;26.40;59.65;100197.38;5091158;28;20027;-22
2021/06/29 06:53:04;;;;;;;21.38;18.60;;;;;;;26.18;60.64;100214.72;5091319;28;20032;-22
2021/06/29 06:55:29;;;;;;;26.10;18.85;;;;;;;26.50;60.39;100201.72;5091473;28;20032;-21
2021/06/29 06:57:55;;;;;;;25.42;18.48;;;;;;;26.76;58.76;100204.44;5091165;28;20070;-22
2021/06/29 07:00:21;;;;;;;21.42;17.73;;;;;;;26.74;58.93;100201.22;5090989;28;20031;-21
2021/06/29 07:02:47;;;;;;;21.23;17.23;;;;;;;26.83;59.19;100212.97;5091148;28;20476;-22
2021/06/29 07:05:12;;;;;;;23.42;17.98;;;;;;;26.67;59.05;100202.84;5091154;28;20032;-22
2021/06/29 07:07:38;;;;;;;25.30;17.17;;;;;;;26.83;57.86;100210.22;5090792;28;20036;-22
2021/06/29 07:10:04;;;;;;;21.02;17.33;;;;;;;26.83;57.64;100212.97;5072340;28;20059;-22
2021/06/29 07:12:30;;;;;;;21.40;16.70;;;;;;;26.88;56.60;100205.72;5091605;28;20484;-22
2021/06/29 07:14:55;;;;;;;20.67;17.17;;;;;;;26.72;58.63;100187.06;5091593;28;20046;-22
2021/06/29 07:17:21;;;;;;;20.48;17.10;;;;;;;27.07;56.79;100206.13;5090896;28;20132;-21
2021/06/29 07:19:46;;;;;;;19.40;15.50;;;;;;;27.06;56.06;100212.75;5090926;28;20035;-22
2021/06/29 07:22:12;;;;;;;21.63;15.18;;;;;;;27.25;55.53;100221.41;5090706;28;20035;-22
2021/06/29 07:24:37;;;;;;;22.65;17.48;;;;;;;27.36;55.52;100208.16;5090674;28;20031;-22
2021/06/29 07:27:04;;;;;;;21.02;16.92;;;;;;;27.06;57.30;100210.00;5090817;28;20457;-22
2021/06/29 07:29:30;;;;;;;18.95;15.75;;;;;;;27.46;54.38;100212.47;5090665;28;20115;-22
2021/06/29 07:31:55;;;;;;;18.60;16.05;;;;;;;27.74;54.40;100212.00;5090210;28;20089;-22
2021/06/29 07:34:21;;;;;;;23.25;14.70;;;;;;;27.30;54.13;100206.75;5090811;28;20078;-22
2021/06/29 07:36:46;;;;;;;16.25;14.52;;;;;;;27.65;52.73;100212.06;5090765;28;20024;-22
2021/06/29 07:39:12;;;;;;;20.73;14.80;;;;;;;27.70;52.43;100208.31;5090429;28;20427;-22
2021/06/29 07:41:37;;;;;;;19.45;14.90;;;;;;;27.87;51.71;100200.06;5090566;28;20085;-22
2021/06/29 07:44:03;;;;;;;17.27;14.95;;;;;;;27.98;51.92;100193.03;5090298;28;20439;-22
2021/06/29 07:46:29;;;;;;;18.50;14.73;;;;;;;28.11;51.25;100212.28;5090396;28;20507;-22
2021/06/29 07:48:54;;;;;;;18.10;13.60;;;;;;;28.09;51.69;100204.38;5090199;28;20036;-22
2021/06/29 07:51:19;;;;;;;18.70;14.05;;;;;;;28.31;49.46;100200.53;5090392;28;20103;-23
2021/06/29 07:53:46;;;;;;;19.27;14.25;;;;;;;28.15;52.05;100197.56;5090004;28;20826;-22
2021/06/29 07:56:14;;;;;;;19.77;15.18;;;;;;;28.36;51.94;100202.25;5090390;28;20036;-22
2021/06/29 07:58:41;;;;;;;20.42;14.65;;;;;;;28.45;49.89;100181.06;5089971;28;20047;-22
2021/06/29 08:01:07;;;;;;;17.70;14.45;;;;;;;28.76;49.51;100194.31;5090174;28;20027;-22
2021/06/29 08:03:32;;;;;;;16.92;13.77;;;;;;;28.80;49.02;100184.28;5090027;28;20044;-22
2021/06/29 08:05:58;;;;;;;18.67;14.60;;;;;;;28.96;48.92;100186.38;5090028;28;20032;-22
2021/06/29 08:08:23;;;;;;;16.70;13.57;;;;;;;29.01;49.44;100194.38;5089654;28;20036;-22
2021/06/29 08:10:49;;;;;;;17.83;12.73;;;;;;;28.92;47.75;100179.97;5089998;28;20439;-22
2021/06/29 08:13:15;;;;;;;17.15;13.02;;;;;;;29.06;47.96;100191.44;5090002;28;20106;-22
2021/06/29 08:15:40;;;;;;;18.20;14.82;;;;;;;29.20;46.49;100183.72;5089757;28;20044;-23
2021/06/29 08:18:06;;;;;;;17.27;13.63;;;;;;;29.24;46.84;100183.84;5090040;28;20089;-22
2021/06/29 08:20:31;;;;;;;16.13;13.57;;;;;;;29.38;45.62;100167.00;5090004;28;20036;-22
2021/06/29 08:22:57;;;;;;;15.70;12.18;;;;;;;29.10;45.77;100175.88;5089505;28;20028;-22
2021/06/29 08:25:23;;;;;;;14.23;12.52;;;;;;;29.41;44.62;100175.34;5089689;28;20453;-22
2021/06/29 08:27:49;;;;;;;14.43;12.15;;;;;;;29.56;44.95;100171.09;5089208;28;20034;-22
2021/06/29 08:30:15;;;;;;;19.00;12.85;;;;;;;29.65;44.22;100169.06;5089461;28;20044;-22
2021/06/29 08:32:41;;;;;;;18.95;12.52;;;;;;;30.01;43.61;100180.34;5089352;28;20020;-22
2021/06/29 08:35:07;;;;;;;16.15;11.68;;;;;;;30.28;43.42;100167.81;5089200;28;20038;-22
2021/06/29 08:37:33;;;;;;;14.25;11.70;;;;;;;30.18;42.45;100163.59;5071103;28;20056;-22
2021/06/29 08:39:58;;;;;;;16.10;11.48;;;;;;;29.86;43.41;100159.88;5089333;28;20035;-22
2021/06/29 08:42:24;;;;;;;19.85;12.57;;;;;;;30.03;43.29;100162.34;5089366;28;20032;-22
2021/06/29 08:44:49;;;;;;;16.40;12.88;;;;;;;30.10;43.80;100142.53;5089504;28;20338;-22
2021/06/29 08:47:14;;;;;;;14.25;10.82;;;;;;;29.62;43.94;100138.72;5089276;28;20035;-21
2021/06/29 08:49:40;;;;;;;14.13;12.18;;;;;;;29.58;44.27;100129.56;5089370;28;20430;-22
2021/06/29 08:52:06;;;;;;;17.35;11.73;;;;;;;30.06;44.30;100144.38;5088751;28;20032;-22
2021/06/29 08:54:32;;;;;;;14.35;12.63;;;;;;;30.10;45.57;100142.53;5071023;28;20024;-22
2021/06/29 08:56:58;;;;;;;15.38;10.90;;;;;;;30.75;43.86;100134.13;5088890;28;20098;-22
2021/06/29 08:59:24;;;;;;;15.00;12.35;;;;;;;30.67;44.23;100146.09;5088823;28;20035;-22
2021/06/29 09:01:49;;;;;;;14.02;11.45;;;;;;;30.48;44.06;100149.50;5088996;28;20034;-22
2021/06/29 09:04:15;;;;;;;15.38;11.68;;;;;;;30.84;41.65;100144.94;5088832;28;20132;-22
2021/06/29 09:06:41;;;;;;;14.30;10.50;;;;;;;30.90;43.84;100142.78;5088786;28;20047;-22
2021/06/29 09:09:27;;;;;;;13.57;11.25;;;;;;;31.36;41.98;100121.84;5088128;28;20056;-22
2021/06/29 09:11:53;;;;;;;13.30;10.73;;;;;;;31.19;43.12;100125.78;5087652;28;20028;-22
2021/06/29 09:14:19;;;;;;;17.90;10.68;;;;;;;31.46;43.19;100139.81;5088508;28;20035;-21
2021/06/29 09:16:46;;;;;;;12.73;10.10;;;;;;;30.98;40.99;100122.53;5088485;28;20024;-22
2021/06/29 09:19:11;;;;;;;13.60;9.68;;;;;;;31.70;41.22;100146.25;5088265;28;20036;-22
2021/06/29 09:21:37;;;;;;;13.43;9.90;;;;;;;31.75;41.21;100144.03;5088460;28;20035;-22
2021/06/29 09:24:03;;;;;;;13.38;10.27;;;;;;;31.52;40.36;100143.09;5088107;28;20545;-22
2021/06/29 09:26:29;;;;;;;16.08;12.60;;;;;;;31.46;40.61;100137.06;5088351;28;20162;-21
2021/06/29 09:28:59;;;;;;;13.70;11.30;;;;;;;31.79;40.43;100133.88;5088272;28;20040;-22
2021/06/29 09:31:27;;;;;;;14.57;11.77;;;;;;;31.84;41.95;100122.53;5088131;28;20074;-22
2021/06/29 09:33:54;;;;;;;15.05;12.05;;;;;;;32.14;41.83;100129.47;5088063;28;20111;-21
2021/06/29 09:36:22;;;;;;;17.50;12.57;;;;;;;32.02;42.01;100130.44;5088437;28;20138;-22
2021/06/29 09:38:48;;;;;;;16.20;12.95;;;;;;;32.35;41.41;100118.06;5087989;28;20024;-22
2021/06/29 09:41:23;;;;;;;17.93;15.90;;;;;;;32.29;40.44;100117.56;5088053;28;20032;-22
2021/06/29 09:43:53;;;;;;;15.52;11.65;;;;;;;32.09;42.67;100107.72;5087841;28;20020;-22
2021/06/29 09:46:19;;;;;;;14.93;12.27;;;;;;;32.24;40.68;100101.28;5088097;28;20426;-21
2021/06/29 09:48:46;;;;;;;15.17;11.97;;;;;;;32.83;41.07;100116.63;5088102;28;20032;-21
2021/06/29 09:51:18;;;;;;;14.63;12.48;;;;;;;32.54;40.91;100111.72;5087753;28;20024;-21
2021/06/29 09:53:48;;;;;;;16.90;12.48;;;;;;;32.77;41.40;100098.72;5087617;28;20507;-22
2021/06/29 09:56:18;;;;;;;16.65;12.02;;;;;;;32.94;39.06;100096.66;5070329;28;20030;-21
2021/06/29 09:58:51;;;;;;;12.70;11.30;;;;;;;33.17;37.82;100102.16;5087849;28;20544;-22
2021/06/29 10:01:18;;;;;;;12.50;11.20;;;;;;;33.06;38.84;100107.50;5087762;28;20118;-21
2021/06/29 10:03:43;;;;;;;;;;;;;;;33.25;37.72;100094.78;5087635;28;20024;-22
2021/06/29 10:06:29;;;;;;;14.63;11.80;;;;;;;32.82;39.11;100097.66;5087644;28;19961;-21
2021/06/29 10:08:55;;;;;;;13.23;11.82;;;;;;;32.75;38.29;100084.50;5088455;28;20130;-21
2021/06/29 10:11:22;;;;;;;16.50;11.93;;;;;;;32.70;38.94;100090.34;5071187;28;20016;-21
2021/06/29 10:14:08;;;;;;;14.18;11.98;;;;;;;33.08;39.54;100080.34;5087234;28;20082;-22
2021/06/29 10:16:37;;;;;;;;;;;;;;;33.14;38.60;100078.84;5087220;28;20050;-21
2021/06/29 10:19:14;;;;;;;14.55;12.13;;;;;;;33.02;38.93;100076.25;5087301;28;19969;-22
2021/06/29 10:21:45;;;;;;;14.00;12.57;;;;;;;32.64;39.76;100078.00;5087158;28;20118;-21
2021/06/29 10:24:12;;;;;;;12.70;11.20;;;;;;;33.17;37.99;100067.03;5086416;28;20032;-22
2021/06/29 10:26:39;;;;;;;14.32;10.77;;;;;;;33.05;37.35;100071.97;5087362;28;20124;-21
2021/06/29 10:29:07;;;;;;;16.02;11.25;;;;;;;33.21;38.20;100056.84;5087100;28;20024;-21
2021/06/29 10:31:34;;;;;;;13.18;10.63;;;;;;;33.42;37.42;100061.06;5087194;28;20116;-21
2021/06/29 10:34:01;;;;;;;12.00;10.52;;;;;;;33.67;37.37;100063.38;5086919;28;20028;-21
2021/06/29 10:36:28;;;;;;;10.77;9.70;;;;;;;33.61;35.63;100049.09;5087225;28;20043;-21
2021/06/29 10:38:54;;;;;;;13.00;10.43;;;;;;;33.39;37.12;100048.78;5086913;28;20016;-21
2021/06/29 10:41:21;;;;;;;13.77;10.43;;;;;;;34.15;35.80;100047.00;5086962;28;20028;-22
2021/06/29 10:43:47;;;;;;;23.73;20.67;;;;;;;34.73;33.32;100049.13;5086888;28;20035;-21
2021/06/29 10:46:28;;;;;;;11.45;9.00;;;;;;;34.73;35.10;100054.66;5069397;28;20032;-21
2021/06/29 10:48:54;;;;;;;10.75;9.65;;;;;;;33.93;33.78;100034.84;5087086;28;20531;-21
2021/06/29 10:51:38;;;;;;;10.90;9.45;;;;;;;34.54;33.10;100027.19;5069195;28;20864;-21
2021/06/29 10:54:04;;;;;;;11.23;9.15;;;;;;;34.91;33.39;100032.63;5086919;28;20016;-21
2021/06/29 10:56:54;;;;;;;10.85;9.30;;;;;;;34.95;34.22;100030.69;5086887;28;20060;-21
2021/06/29 10:59:30;;;;;;;11.15;9.02;;;;;;;34.74;33.50;100017.47;5087030;28;20831;-21
2021/06/29 11:01:56;;;;;;;9.85;8.70;;;;;;;34.14;33.89;100017.72;5070137;28;20037;-21
2021/06/29 11:04:47;;;;;;;12.25;9.15;;;;;;;34.59;33.08;100022.09;5069027;28;20032;-21
2021/06/29 11:07:27;;;;;;;10.15;8.57;;;;;;;35.44;34.18;100025.84;5086599;28;20119;-22